Kugler, Minnesota
Current Conditions -  °F | °C
As of 7:54 AM on Monday 24 Nov 2014 (Local Time) from KCQM Reporting Station
Light Snow Light Snow  
Wind Chill: 18°   Ceiling: 1200
Heat Index: 25°   Visibility: 5mi
Dew Point: 25°   Wind: 6mph
Humidity: 100%   Direction: 310°NW
Pressure: 29.35"   Gusts: NA
Location:  47.7992°N, 92.3042°W
Report Text: KCQM 241354Z AUTO 31005KT 5SM -SN OVC012 M04/M04 A2935 RMK AO2
Loading
Personal Weather Stations






























Interactive Weather Map New forecast layout! Learn more

10-Day Weather Forecast

Advertisements
Track Severe Weather on mobile